Time;durP1;ratioP1;P1;durP2;ratioP2;P2;SDS_P1;SDS_P2;PMS_P1;PMS_P2;Temp;Humidity;BMP_temperature;BMP_pressure;BME280_temperature;BME280_humidity;BME280_pressure;Samples;Min_cycle;Max_cycle;Signal;HPM_P1;HPM_P2
2023/02/17 00:01:21;;;;;;;16.83;11.57;;;;;;;;;;5049274;28;20208;-82
2023/02/17 00:03:49;;;;;;;17.07;11.60;;;;;;;;;;5048646;28;20232;-83
2023/02/17 00:06:17;;;;;;;17.07;11.53;;;;;;;;;;5049638;28;20252;-84
2023/02/17 00:08:46;;;;;;;16.93;11.60;;;;;;;;;;5049144;28;20203;-84
2023/02/17 00:11:13;;;;;;;14.87;11.30;;;;;;;;;;5049022;28;20684;-84
2023/02/17 00:13:41;;;;;;;17.30;11.70;;;;;;;;;;5049942;28;20252;-83
2023/02/17 00:16:08;;;;;;;18.23;12.23;;;;;;;;;;5049340;28;20219;-83
2023/02/17 00:18:36;;;;;;;15.30;12.07;;;;;;;;;;5049259;28;20200;-84
2023/02/17 00:21:11;;;;;;;18.77;11.63;;;;;;;;;;5047482;28;20284;-84
2023/02/17 00:23:38;;;;;;;18.67;12.53;;;;;;;;;;5048930;28;20287;-84
2023/02/17 00:26:07;;;;;;;19.23;11.80;;;;;;;;;;5049451;27;20272;-84
2023/02/17 00:28:35;;;;;;;19.77;12.10;;;;;;;;;;5049128;27;20260;-84
2023/02/17 00:31:07;;;;;;;18.73;12.40;;;;;;;;;;5048935;28;20200;-83
2023/02/17 00:33:34;;;;;;;16.13;12.13;;;;;;;;;;5029255;28;20619;-84
2023/02/17 00:36:03;;;;;;;16.30;11.77;;;;;;;;;;5028795;28;20641;-84
2023/02/17 00:38:31;;;;;;;18.37;11.87;;;;;;;;;;5028890;28;20204;-84
2023/02/17 00:40:58;;;;;;;20.93;12.50;;;;;;;;;;5029154;28;20208;-84
2023/02/17 00:43:27;;;;;;;17.67;11.87;;;;;;;;;;5028765;28;20235;-83
2023/02/17 00:45:54;;;;;;;18.27;13.03;;;;;;;;;;5028721;28;20267;-83
2023/02/17 00:48:21;;;;;;;16.17;12.10;;;;;;;;;;5032490;28;20234;-84
2023/02/17 00:50:49;;;;;;;20.53;12.63;;;;;;;;;;5048596;28;20200;-83
2023/02/17 00:53:16;;;;;;;18.53;12.87;;;;;;;;;;5048446;28;20236;-83
2023/02/17 00:55:44;;;;;;;18.57;13.10;;;;;;;;;;5048546;28;20225;-83
2023/02/17 00:58:11;;;;;;;18.73;12.93;;;;;;;;;;5048896;28;20204;-82
2023/02/17 01:00:40;;;;;;;21.57;13.87;;;;;;;;;;5048554;28;20200;-83
2023/02/17 01:03:07;;;;;;;19.33;13.40;;;;;;;;;;5048615;28;20272;-84
2023/02/17 01:05:35;;;;;;;18.97;13.60;;;;;;;;;;5048565;28;20200;-83
2023/02/17 01:08:02;;;;;;;23.33;13.20;;;;;;;;;;5048550;28;20199;-83
2023/02/17 01:10:29;;;;;;;21.10;13.87;;;;;;;;;;5048675;28;20187;-83
2023/02/17 01:12:56;;;;;;;21.20;13.73;;;;;;;;;;5048449;28;20253;-84
2023/02/17 01:15:24;;;;;;;24.87;14.13;;;;;;;;;;5048163;28;20252;-83
2023/02/17 01:17:52;;;;;;;20.47;13.90;;;;;;;;;;5047990;28;20252;-82
2023/02/17 01:20:20;;;;;;;21.13;14.43;;;;;;;;;;5047940;28;20228;-82
2023/02/17 01:22:47;;;;;;;20.60;14.03;;;;;;;;;;5048928;28;20235;-82
2023/02/17 01:25:14;;;;;;;20.73;13.17;;;;;;;;;;5048247;28;20776;-84
2023/02/17 01:27:42;;;;;;;19.47;13.67;;;;;;;;;;5048515;28;20256;-84
2023/02/17 01:30:09;;;;;;;23.67;14.53;;;;;;;;;;5048341;28;20244;-83
2023/02/17 01:32:37;;;;;;;19.97;13.50;;;;;;;;;;5048303;28;20253;-84
2023/02/17 01:35:06;;;;;;;20.17;13.53;;;;;;;;;;5048449;28;20715;-84
2023/02/17 01:37:33;;;;;;;20.23;13.60;;;;;;;;;;5048243;28;20199;-83
2023/02/17 01:40:01;;;;;;;22.60;13.70;;;;;;;;;;5048398;28;20203;-83
2023/02/17 01:42:28;;;;;;;19.97;13.07;;;;;;;;;;5047947;28;20248;-83
2023/02/17 01:45:14;;;;;;;20.87;14.37;;;;;;;;;;5048131;28;20196;-83
2023/02/17 01:47:42;;;;;;;20.80;13.30;;;;;;;;;;5047826;28;20724;-82
2023/02/17 01:50:11;;;;;;;23.23;13.43;;;;;;;;;;5048139;28;20228;-83
2023/02/17 01:52:38;;;;;;;22.53;14.23;;;;;;;;;;5047999;28;20223;-84
2023/02/17 01:55:08;;;;;;;21.10;14.13;;;;;;;;;;5047820;28;20633;-84
2023/02/17 01:57:37;;;;;;;20.77;12.37;;;;;;;;;;5047351;28;20234;-83
2023/02/17 02:00:05;;;;;;;25.27;13.70;;;;;;;;;;5047988;28;20290;-83
2023/02/17 02:02:32;;;;;;;26.50;13.70;;;;;;;;;;5047942;28;20231;-83
2023/02/17 02:04:59;;;;;;;26.57;14.33;;;;;;;;;;5047936;28;20691;-83
2023/02/17 02:07:29;;;;;;;28.00;14.93;;;;;;;;;;5048106;28;20656;-83
2023/02/17 02:09:57;;;;;;;29.13;14.37;;;;;;;;;;5047750;28;20235;-83
2023/02/17 02:12:25;;;;;;;24.40;13.70;;;;;;;;;;5048159;28;20704;-83
2023/02/17 02:14:53;;;;;;;23.13;13.27;;;;;;;;;;5048109;28;20196;-83
2023/02/17 02:17:27;;;;;;;24.67;13.33;;;;;;;;;;5048181;28;20291;-84
2023/02/17 02:20:08;;;;;;;19.47;13.73;;;;;;;;;;5049748;28;20270;-82
2023/02/17 02:22:50;;;;;;;23.40;13.83;;;;;;;;;;5049592;28;20227;-84
2023/02/17 02:25:26;;;;;;;19.87;12.80;;;;;;;;;;5049787;28;20652;-83
2023/02/17 02:27:57;;;;;;;24.53;12.87;;;;;;;;;;5051866;28;20199;-83
2023/02/17 02:30:42;;;;;;;23.00;12.50;;;;;;;;;;5053328;28;20659;-83
2023/02/17 02:33:14;;;;;;;23.70;12.73;;;;;;;;;;5056372;28;20676;-83
2023/02/17 02:35:47;;;;;;;26.93;13.07;;;;;;;;;;5052292;28;20914;-83
2023/02/17 02:38:15;;;;;;;22.73;11.53;;;;;;;;;;5050691;28;20248;-83
2023/02/17 02:40:45;;;;;;;29.13;12.40;;;;;;;;;;5050893;28;20264;-83
2023/02/17 02:43:12;;;;;;;22.37;11.47;;;;;;;;;;5051430;28;20655;-84
2023/02/17 02:45:40;;;;;;;21.90;11.63;;;;;;;;;;5050397;28;20728;-82
2023/02/17 02:48:07;;;;;;;16.80;11.47;;;;;;;;;;5050974;28;20234;-84
2023/02/17 02:50:54;;;;;;;28.87;12.63;;;;;;;;;;5050641;28;20702;-83
2023/02/17 02:53:32;;;;;;;20.53;11.47;;;;;;;;;;5050670;28;20740;-83
2023/02/17 02:56:03;;;;;;;24.80;12.43;;;;;;;;;;5050659;28;20237;-84
2023/02/17 02:58:36;;;;;;;21.57;12.10;;;;;;;;;;5050704;28;20274;-83
2023/02/17 03:01:06;;;;;;;21.33;11.57;;;;;;;;;;5049794;28;20636;-83
2023/02/17 03:03:36;;;;;;;24.50;12.20;;;;;;;;;;5050447;28;20696;-83
2023/02/17 03:06:07;;;;;;;23.47;12.10;;;;;;;;;;5050421;28;20272;-83
2023/02/17 03:08:39;;;;;;;25.63;12.90;;;;;;;;;;5050408;28;20192;-83
2023/02/17 03:11:06;;;;;;;23.50;13.00;;;;;;;;;;5050901;28;20263;-83
2023/02/17 03:13:36;;;;;;;23.10;12.47;;;;;;;;;;5050497;28;20668;-83
2023/02/17 03:16:04;;;;;;;25.00;13.40;;;;;;;;;;5049914;28;20747;-83
2023/02/17 03:18:32;;;;;;;25.63;14.43;;;;;;;;;;5050598;28;20223;-83
2023/02/17 03:21:02;;;;;;;24.60;13.80;;;;;;;;;;5050283;28;20799;-83
2023/02/17 03:23:31;;;;;;;26.87;13.97;;;;;;;;;;5041966;28;20259;-83
2023/02/17 03:25:58;;;;;;;40.23;14.40;;;;;;;;;;5037747;28;20244;-82
2023/02/17 03:28:26;;;;;;;32.90;14.47;;;;;;;;;;5030270;28;20203;-83
2023/02/17 03:30:53;;;;;;;31.07;14.33;;;;;;;;;;5030159;28;20269;-83
2023/02/17 03:33:20;;;;;;;59.53;14.00;;;;;;;;;;5030066;28;20597;-83
2023/02/17 03:35:47;;;;;;;65.60;14.60;;;;;;;;;;5030019;28;20239;-83
2023/02/17 03:38:14;;;;;;;46.00;14.40;;;;;;;;;;5029877;28;20236;-84
2023/02/17 03:40:43;;;;;;;40.17;14.60;;;;;;;;;;5029784;28;20224;-83
2023/02/17 03:43:10;;;;;;;37.60;13.07;;;;;;;;;;5029640;28;20346;-83
2023/02/17 03:45:38;;;;;;;47.53;13.70;;;;;;;;;;5030431;28;20204;-83
2023/02/17 03:48:05;;;;;;;62.27;13.17;;;;;;;;;;5029925;28;20277;-83
2023/02/17 03:50:32;;;;;;;43.43;12.50;;;;;;;;;;5029939;28;20284;-83
2023/02/17 03:53:00;;;;;;;50.20;12.90;;;;;;;;;;5029635;28;20201;-83
2023/02/17 03:55:27;;;;;;;33.50;12.90;;;;;;;;;;5029825;28;20228;-82
2023/02/17 03:57:56;;;;;;;33.17;12.37;;;;;;;;;;5029832;28;20224;-82
2023/02/17 04:00:24;;;;;;;34.70;12.57;;;;;;;;;;5029835;28;20224;-83
2023/02/17 04:02:51;;;;;;;37.63;12.37;;;17.50;99.90;;;;;;5029828;28;20292;-83
2023/02/17 04:05:18;;;;;;;31.63;11.53;;;19.20;99.90;;;;;;5029601;28;20260;-82
2023/02/17 04:07:45;;;;;;;23.60;11.43;;;19.30;99.90;;;;;;5029445;28;20307;-83
2023/02/17 04:10:12;;;;;;;30.13;11.07;;;;;;;;;;5029733;28;20224;-84
2023/02/17 04:12:39;;;;;;;31.40;11.50;;;;;;;;;;5043180;28;20303;-83
2023/02/17 04:15:08;;;;;;;29.07;11.33;;;;;;;;;;5048939;28;20223;-83
2023/02/17 04:17:37;;;;;;;45.27;11.97;;;;;;;;;;5049168;28;20240;-83
2023/02/17 04:20:04;;;;;;;40.30;10.80;;;;;;;;;;5049157;28;20220;-83
2023/02/17 04:22:31;;;;;;;37.60;10.37;;;;;;;;;;5049444;28;20224;-82
2023/02/17 04:24:59;;;;;;;45.77;10.40;;;;;;;;;;5049074;28;20643;-84
2023/02/17 04:27:26;;;;;;;57.80;12.07;;;;;;;;;;5048598;28;20238;-83
2023/02/17 04:29:53;;;;;;;47.97;11.07;;;;;;;;;;5048928;28;20452;-83
2023/02/17 04:32:22;;;;;;;53.43;11.43;;;;;;;;;;5049126;28;20690;-83
2023/02/17 04:34:49;;;;;;;47.63;11.70;;;;;;;;;;5049147;28;20214;-83
2023/02/17 04:37:16;;;;;;;43.60;11.33;;;;;;;;;;5049324;28;20286;-83
2023/02/17 04:39:43;;;;;;;55.47;11.57;;;;;;;;;;5049156;28;20245;-83
2023/02/17 04:42:11;;;;;;;33.50;11.83;;;;;;;;;;5048792;28;20915;-83
2023/02/17 04:44:38;;;;;;;46.70;12.50;;;;;;;;;;5048972;28;20704;-83
2023/02/17 04:47:05;;;;;;;27.23;12.07;;;;;;;;;;5049255;28;20227;-83
2023/02/17 04:49:34;;;;;;;35.27;12.40;;;;;;;;;;5048256;28;20240;-83
2023/02/17 04:52:01;;;;;;;30.27;11.83;;;;;;;;;;5048529;28;20641;-83
2023/02/17 04:54:28;;;;;;;33.90;12.23;;;;;;;;;;5048821;28;20234;-83
2023/02/17 04:56:55;;;;;;;25.13;11.40;;;;;;;;;;5048534;28;20239;-84
2023/02/17 04:59:23;;;;;;;26.70;11.27;;;;;;;;;;5049013;28;20295;-83
2023/02/17 05:01:50;;;;;;;21.53;10.53;;;;;;;;;;5048588;28;20192;-83
2023/02/17 05:04:17;;;;;;;23.57;10.87;;;;;;;;;;5048489;28;20659;-83
2023/02/17 05:06:46;;;;;;;24.03;10.63;;;;;;;;;;5048479;28;20291;-83
2023/02/17 05:09:13;;;;;;;18.50;10.10;;;;;;;;;;5048572;28;20227;-82
2023/02/17 05:11:40;;;;;;;17.07;9.97;;;;;;;;;;5048644;28;20235;-83
2023/02/17 05:14:07;;;;;;;17.63;9.43;;;;;;;;;;5048057;28;20346;-83
2023/02/17 05:16:34;;;;;;;18.57;9.43;;;;;;;;;;5048455;28;20704;-83
2023/02/17 05:19:02;;;;;;;17.70;9.27;;;;;;;;;;5048212;28;20259;-83
2023/02/17 05:21:29;;;;;;;15.80;9.60;;;;;;;;;;5048416;28;20216;-84
2023/02/17 05:23:57;;;;;;;15.00;9.10;;;;;;;;;;5048263;28;22179;-83
2023/02/17 05:26:25;;;;;;;15.00;9.00;;;;;;;;;;5048089;28;20196;-83
2023/02/17 05:28:52;;;;;;;15.70;9.23;;;;;;;;;;5048716;28;20246;-82
2023/02/17 05:31:19;;;;;;;15.77;9.67;;;;;;;;;;5048092;28;20235;-83
2023/02/17 05:33:46;;;;;;;14.50;8.83;;;;;;;;;;5048146;28;20226;-83
2023/02/17 05:36:14;;;;;;;14.80;8.50;;;;;;;;;;5048139;28;20236;-83
2023/02/17 05:38:41;;;;;;;14.17;8.53;;;;;;;;;;5047980;28;20227;-83
2023/02/17 05:41:09;;;;;;;13.43;8.23;;;;;;;;;;5048098;28;20232;-83
2023/02/17 05:43:37;;;;;;;15.17;8.50;;;;;;;;;;5048283;28;20227;-83
2023/02/17 05:46:04;;;;;;;12.77;7.97;;;;;;;;;;5047837;28;20266;-83
2023/02/17 05:48:32;;;;;;;13.73;8.73;;;;;;;;;;5048177;28;20227;-83
2023/02/17 05:50:59;;;;;;;14.03;8.43;;;;;;;;;;5047986;28;20234;-83
2023/02/17 05:53:26;;;;;;;13.67;8.77;;;;;;;;;;5047624;28;20746;-83
2023/02/17 05:55:54;;;;;;;16.20;9.83;;;;;;;;;;5048014;28;20259;-82
2023/02/17 05:58:22;;;;;;;14.23;8.63;;;;;;;;;;5048223;28;20232;-83
2023/02/17 06:00:50;;;;;;;14.50;8.67;;;;;;;;;;5047924;28;20641;-84
2023/02/17 06:03:17;;;;;;;12.93;8.37;;;;;;;;;;5050005;28;20235;-83
2023/02/17 06:05:45;;;;;;;14.00;8.30;;;;;;;;;;5050950;28;20262;-83
2023/02/17 06:08:12;;;;;;;14.67;9.07;;;;;;;;;;5051327;28;20279;-83
2023/02/17 06:10:40;;;;;;;13.37;7.13;;;;;;;;;;5051429;28;20242;-84
2023/02/17 06:13:07;;;;;;;15.00;7.87;;;;;;;;;;5051404;28;20243;-84
2023/02/17 06:15:35;;;;;;;12.93;7.90;;;;;;;;;;5051323;28;20234;-83
2023/02/17 06:18:03;;;;;;;12.67;8.10;;;;;;;;;;5051354;28;20618;-82
2023/02/17 06:20:30;;;;;;;11.17;7.50;;;;;;;;;;5051305;28;20252;-83
2023/02/17 06:22:57;;;;;;;10.83;7.17;;;;;;;;;;5050597;28;20231;-81
2023/02/17 06:25:25;;;;;;;11.63;7.93;;;;;;;;;;5051110;28;20244;-84
2023/02/17 06:27:52;;;;;;;10.67;7.13;;;;;;;;;;5051451;28;20234;-82
2023/02/17 06:30:20;;;;;;;11.10;6.97;;;;;;;;;;5050772;28;20291;-82
2023/02/17 06:32:48;;;;;;;11.60;7.40;;;;;;;;;;5050884;28;20279;-82
2023/02/17 06:35:16;;;;;;;10.67;6.87;;;;;;;;;;5051046;28;20282;-84
2023/02/17 06:37:43;;;;;;;12.77;7.33;;;;;;;;;;5050344;28;20290;-82
2023/02/17 06:40:11;;;;;;;12.83;7.30;;;;;;;;;;5050356;28;20192;-81
2023/02/17 06:42:38;;;;;;;13.20;8.77;;;;;;;;;;5051131;28;20219;-81
2023/02/17 06:45:06;;;;;;;12.73;8.70;;;;;;;;;;5050649;28;20263;-82
2023/02/17 06:47:33;;;;;;;13.53;9.40;;;;;;;;;;5050605;28;20219;-82
2023/02/17 06:50:02;;;;;;;12.70;8.87;;;;;;;;;;5050268;28;20231;-82
2023/02/17 06:52:29;;;;;;;12.40;9.10;;;;;;;;;;5050621;28;20223;-82
2023/02/17 06:54:57;;;;;;;14.53;8.63;;;;;;;;;;5050329;28;20276;-81
2023/02/17 06:57:24;;;;;;;12.27;8.37;;;;;;;;;;5050105;28;20227;-82
2023/02/17 06:59:51;;;;;;;13.33;8.43;;;;;;;;;;5050458;28;20223;-81
2023/02/17 07:02:18;;;;;;;11.47;7.93;;;;;;;;;;5050539;28;20642;-81
2023/02/17 07:04:45;;;;;;;11.23;7.27;;;;;;;;;;5049769;28;20360;-82
2023/02/17 07:07:14;;;;;;;13.80;7.70;;;;;;;;;;5050354;28;20634;-83
2023/02/17 07:09:41;;;;;;;13.73;7.80;;;;;;;;;;5050460;28;20279;-83
2023/02/17 07:12:08;;;;;;;11.03;7.77;;;;;;;;;;5050199;28;20722;-82
2023/02/17 07:14:36;;;;;;;12.17;7.83;;;;;;;;;;5050059;28;20280;-82
2023/02/17 07:17:03;;;;;;;12.00;7.23;;;;;;;;;;5050605;28;20216;-82
2023/02/17 07:19:30;;;;;;;13.27;7.33;;;;;;;;;;5050321;28;20315;-82
2023/02/17 07:21:58;;;;;;;13.37;8.07;;;;;;;;;;5049661;28;20223;-82
2023/02/17 07:24:27;;;;;;;14.77;8.07;;;;;;;;;;5049919;28;20728;-82
2023/02/17 07:26:55;;;;;;;13.20;8.50;;;;;;;;;;5049903;28;20668;-81
2023/02/17 07:29:22;;;;;;;15.07;9.00;;;;;;;;;;5050124;28;20200;-82
2023/02/17 07:31:49;;;;;;;15.40;8.93;;;;;;;;;;5050365;28;20228;-82
2023/02/17 07:34:17;;;;;;;14.30;8.87;;;;;;;;;;5050184;28;20696;-82
2023/02/17 07:36:44;;;;;;;12.90;8.47;;;;;;;;;;5049144;28;20204;-82
2023/02/17 07:39:11;;;;;;;14.17;8.03;;;;;;;;;;5050132;28;20228;-83
2023/02/17 07:41:39;;;;;;;16.73;8.40;;;;;;;;;;5049602;28;20286;-83
2023/02/17 07:44:07;;;;;;;15.00;9.10;;;;;;;;;;5049743;28;20230;-82
2023/02/17 07:46:34;;;;;;;16.00;9.30;;;;;;;;;;5049756;28;20247;-82
2023/02/17 07:49:01;;;;;;;17.27;10.07;;;;;;;;;;5050103;28;20226;-81
2023/02/17 07:51:28;;;;;;;14.00;8.57;;;;;;;;;;5049314;28;20224;-82
2023/02/17 07:53:56;;;;;;;15.27;9.07;;;;;;;;;;5049705;28;20641;-82
2023/02/17 07:56:24;;;;;;;14.47;9.00;;;;;;;;;;5049752;28;20196;-82
2023/02/17 07:58:53;;;;;;;14.33;8.57;;;;;;;;;;5049261;28;20191;-82
2023/02/17 08:01:21;;;;;;;14.10;9.03;;;;;;;;;;5049416;28;20295;-82
2023/02/17 08:03:48;;;;;;;12.40;8.20;;;;;;;;;;5049070;28;20195;-83
2023/02/17 08:06:16;;;;;;;14.00;8.53;;;;;;;;;;5049588;28;20259;-83
2023/02/17 08:14:28;;;;;;;10.97;7.70;;;;;;;;;;4987950;28;20209;-82
2023/02/17 08:16:55;;;;;;;11.80;8.20;;;;;;;;;;4987894;28;20289;-82
2023/02/17 08:19:22;;;;;;;9.57;7.27;;;;;;;;;;4987444;28;20317;-82
2023/02/17 08:21:49;;;;;;;9.80;7.70;;;;;;;;;;4987710;28;20229;-82
2023/02/17 08:24:18;;;;;;;9.80;7.40;;;;;;;;;;4987473;28;20305;-82
2023/02/17 08:26:46;;;;;;;12.30;7.50;;;;;;;;;;4987256;28;20264;-82
2023/02/17 08:29:13;;;;;;;10.00;7.47;;;;;;;;;;4987471;28;20194;-83
2023/02/17 08:31:42;;;;;;;10.17;7.70;;;;;;;;;;4987878;28;20597;-83
2023/02/17 08:34:11;;;;;;;11.43;8.03;;;;;;;;;;4987166;28;20292;-82
2023/02/17 08:36:38;;;;;;;9.70;8.13;;;;;;;;;;4987177;28;20293;-81
2023/02/17 08:39:06;;;;;;;10.47;7.87;;;;;;;;;;4987581;28;20255;-82
2023/02/17 08:41:35;;;;;;;9.97;7.77;;;;;;;;;;4987408;28;20285;-81
2023/02/17 08:44:03;;;;;;;14.40;8.70;;;;;;;;;;4987253;28;20236;-82
2023/02/17 08:46:31;;;;;;;14.00;9.40;;;;;;;;;;5019555;28;20267;-82
2023/02/17 08:49:00;;;;;;;13.40;8.80;;;;;;;;;;5028497;28;20197;-83
2023/02/17 08:51:27;;;;;;;14.23;9.07;;;;;;;;;;5029331;28;20292;-82
2023/02/17 08:53:56;;;;;;;10.50;8.07;;;;;;;;;;5011343;28;20639;-81
2023/02/17 08:56:23;;;;;;;12.07;8.67;;;;;;;;;;5028761;28;20280;-82
2023/02/17 08:58:51;;;;;;;9.60;7.67;;;;;;;;;;5028911;28;20216;-82
2023/02/17 09:01:18;;;;;;;9.60;7.20;;;;;;;;;;5028670;28;20328;-83
2023/02/17 09:03:46;;;;;;;10.63;7.37;;;;;;;;;;5028537;28;20626;-82
2023/02/17 09:06:15;;;;;;;8.93;6.70;;;;;;;;;;5028689;28;20231;-82
2023/02/17 09:08:42;;;;;;;10.27;7.60;;;;;;;;;;5028680;28;20200;-82
2023/02/17 09:11:10;;;;;;;10.13;7.57;;;;;;;;;;5029491;28;20231;-83
2023/02/17 09:13:37;;;;;;;12.43;8.37;;;;;;;;;;5048616;28;20628;-83
2023/02/17 09:16:05;;;;;;;17.73;12.23;;;;;;;;;;5048253;28;20289;-83
2023/02/17 09:18:32;;;;;;;14.57;10.90;;;;;;;;;;5047877;28;20226;-81
2023/02/17 09:20:59;;;;;;;13.23;8.60;;;;;;;;;;5048073;28;20843;-82
2023/02/17 09:23:28;;;;;;;13.53;9.20;;;;;;;;;;5048474;28;20330;-82
2023/02/17 09:26:03;;;;;;;17.40;11.13;;;;;;;;;;5048062;28;20310;-83
2023/02/17 09:28:30;;;;;;;22.80;14.33;;;;;;;;;;5048138;28;20201;-82
2023/02/17 09:30:57;;;;;;;19.87;14.10;;;;;;;;;;5047542;28;20731;-82
2023/02/17 09:33:24;;;;;;;17.43;12.63;;;;;;;;;;5046500;28;20234;-81
2023/02/17 09:35:52;;;;;;;15.00;10.07;;;;;;;;;;5048478;28;20243;-82
2023/02/17 09:38:19;;;;;;;15.47;11.03;;;;;;;;;;5050755;28;20239;-81
2023/02/17 09:40:49;;;;;;;15.07;10.70;;;;;;;;;;5051716;28;20204;-82
2023/02/17 09:43:18;;;;;;;13.90;9.47;;;;;;;;;;5052266;28;20574;-81
2023/02/17 09:45:48;;;;;;;11.90;8.80;;;;;;;;;;5051253;28;20315;-81
2023/02/17 09:48:16;;;;;;;12.50;8.43;;;;;;;;;;5051738;28;20196;-81
2023/02/17 09:50:47;;;;;;;13.07;8.90;;;;;;;;;;5050866;28;20647;-82
2023/02/17 09:53:16;;;;;;;12.53;8.60;;;;;;;;;;5051582;28;20223;-81
2023/02/17 09:55:47;;;;;;;13.63;8.63;;;;;;;;;;5051672;28;20287;-81
2023/02/17 09:58:20;;;;;;;11.17;7.83;;;;;;;;;;5051311;28;20227;-81
2023/02/17 10:00:48;;;;;;;13.10;7.53;;;;;;;;;;5051062;28;20192;-83
2023/02/17 10:03:17;;;;;;;9.50;7.30;;;;;;;;;;5050440;28;20282;-82
2023/02/17 10:05:46;;;;;;;9.10;6.67;;;;;;;;;;5051294;28;20696;-82
2023/02/17 10:08:17;;;;;;;10.37;7.40;;;;;;;;;;5051154;28;20743;-83
2023/02/17 10:10:48;;;;;;;10.57;7.20;;;;;;;;;;5049982;28;20728;-82
2023/02/17 10:13:18;;;;;;;10.73;7.70;;;;;;;;;;5046774;28;20299;-81
2023/02/17 10:15:49;;;;;;;11.70;6.83;;;;;;;;;;5049194;28;20244;-81
2023/02/17 10:18:17;;;;;;;7.50;6.07;;;;;;;;;;5051294;28;20200;-82
2023/02/17 10:20:48;;;;;;;8.67;6.40;;;;;;;;;;5050626;28;20255;-81
2023/02/17 10:23:17;;;;;;;7.13;6.30;;;;;;;;;;5050947;28;20670;-80
2023/02/17 10:25:50;;;;;;;7.60;5.90;;;;;;;;;;5050841;28;20274;-81
2023/02/17 10:28:22;;;;;;;7.90;5.73;;;;;;;;;;5050740;27;20704;-82
2023/02/17 10:30:52;;;;;;;7.03;5.90;;;;;;;;;;5050608;28;20570;-82
2023/02/17 10:33:24;;;;;;;5.70;5.00;;;;;;;;;;5059745;28;20223;-83
2023/02/17 10:35:52;;;;;;;5.37;4.60;;;;;;;;;;5070852;28;20219;-83
2023/02/17 10:38:26;;;;;;;6.40;4.70;;;;;;;;;;5071015;28;20256;-82
2023/02/17 10:40:55;;;;;;;5.93;4.90;;;;;;;;;;5035436;28;20197;-82
2023/02/17 10:43:28;;;;;;;6.23;5.30;;;;;;;;;;5033545;28;20648;-82
2023/02/17 10:45:56;;;;;;;9.30;6.30;;;;;;;;;;5058713;28;20747;-82
2023/02/17 10:48:25;;;;;;;11.60;8.47;;;;;;;;;;5070208;28;20765;-81
2023/02/17 10:50:54;;;;;;;16.13;12.37;;;;;;;;;;5055168;28;20228;-82
2023/02/17 10:53:23;;;;;;;18.53;13.50;;;;;;;;;;5043600;28;20191;-82
2023/02/17 10:55:54;;;;;;;18.50;12.87;;;;;;;;;;5047290;28;20197;-83
2023/02/17 10:58:25;;;;;;;12.33;8.80;;;;;;;;;;5031888;28;20283;-82
2023/02/17 11:00:55;;;;;;;9.40;7.23;;;;;;;;;;5062692;28;20243;-83
2023/02/17 11:03:23;;;;;;;7.73;6.40;;;;;;;;;;5050025;28;20192;-83
2023/02/17 11:05:55;;;;;;;6.93;5.90;;;;;;;;;;5050345;28;20258;-82
2023/02/17 11:08:26;;;;;;;7.97;6.03;;;;;;;;;;5050195;28;20212;-84
2023/02/17 11:11:00;;;;;;;6.50;5.80;;;;;;;;;;5050582;28;20244;-83
2023/02/17 11:13:31;;;;;;;5.53;4.93;;;;;;;;;;5059516;28;20195;-83
2023/02/17 11:15:58;;;;;;;8.33;6.47;;;;;;;;;;5070165;28;20226;-83
2023/02/17 11:18:28;;;;;;;9.87;7.30;;;;;;;;;;5065456;28;20223;-83
2023/02/17 11:21:01;;;;;;;10.50;8.03;;;;;;;;;;5069666;28;20770;-82
2023/02/17 11:23:28;;;;;;;8.90;7.57;;;;;;;;;;5054666;28;20196;-83
2023/02/17 11:26:00;;;;;;;7.30;6.33;;;;;;;;;;5030392;28;20605;-83
2023/02/17 11:28:28;;;;;;;6.90;6.13;;;;;;;;;;5029775;28;20250;-83
2023/02/17 11:30:58;;;;;;;6.33;5.73;;;;;;;;;;5030405;28;20637;-83
2023/02/17 11:33:30;;;;;;;6.87;5.93;;;;;;;;;;5030326;28;20231;-82
2023/02/17 11:35:58;;;;;;;5.90;5.30;;;;;;;;;;5036157;28;20693;-82
2023/02/17 11:38:26;;;;;;;6.93;5.40;;;;;;;;;;5030088;28;20288;-82
2023/02/17 11:40:54;;;;;;;6.97;5.30;;;;;;;;;;5030163;28;20201;-82
2023/02/17 11:43:22;;;;;;;6.27;5.67;;;;;;;;;;5053073;28;20671;-82
2023/02/17 11:45:52;;;;;;;6.00;5.40;;;;;;;;;;5069652;28;20285;-84
2023/02/17 11:48:34;;;;;;;6.27;5.67;;;;;;;;;;5069548;28;20294;-82
2023/02/17 11:51:03;;;;;;;6.10;5.50;;;;;;;;;;5051065;28;20325;-82
2023/02/17 11:53:40;;;;;;;6.70;5.50;;;;;;;;;;5030396;28;20253;-83
2023/02/17 11:56:13;;;;;;;5.87;5.27;;;;;;;;;;5029120;28;20941;-83
2023/02/17 11:58:46;;;;;;;5.20;4.70;;;;;;;;;;5063487;28;20210;-82
2023/02/17 12:01:20;;;;;;;5.50;4.80;;;;;;;;;;5068539;28;20210;-83
2023/02/17 12:04:05;;;;;;;5.90;5.30;;;;;;;;;;5046767;28;20223;-83
2023/02/17 12:06:38;;;;;;;6.17;5.50;;;;;;;;;;5048708;28;20215;-82
2023/02/17 12:09:09;;;;;;;4.93;4.43;;;;;;;;;;5049718;28;20200;-82
2023/02/17 12:11:41;;;;;;;5.00;4.50;;;;;;;;;;5046814;27;20256;-82
2023/02/17 12:14:15;;;;;;;4.95;4.40;;;;;;;;;;5051463;28;20750;-82
2023/02/17 12:16:47;;;;;;;5.03;4.60;;;;;;;;;;5044030;28;20200;-83
2023/02/17 12:19:25;;;;;;;4.90;4.47;;;;;;;;;;5038372;28;20911;-83
2023/02/17 12:21:58;;;;;;;6.27;5.37;;;;;;;;;;5069429;28;20233;-85
2023/02/17 12:24:41;;;;;;;7.30;4.80;;;;;;;;;;5034422;28;20283;-85
2023/02/17 12:27:15;;;;;;;6.10;5.50;;;;;;;;;;5047554;28;20606;-84
2023/02/17 12:29:53;;;;;;;5.47;4.97;;;;;;;;;;5049221;28;20755;-85
2023/02/17 12:32:29;;;;;;;5.60;5.00;;;;;;;;;;5048952;28;20207;-84
2023/02/17 12:34:59;;;;;;;6.53;5.22;;;;;;;;;;5048838;28;20624;-84
2023/02/17 12:37:29;;;;;;;6.57;5.88;;;;;;;;;;5049250;28;20204;-85
2023/02/17 12:39:58;;;;;;;5.63;5.13;;;;;;;;;;5048254;27;20196;-85
2023/02/17 12:42:27;;;;;;;5.72;5.22;;;;;;;;;;5048093;28;20206;-84
2023/02/17 12:44:56;;;;;;;7.15;5.60;;;;;;;;;;5047989;28;20235;-84
2023/02/17 12:47:25;;;;;;;6.78;5.70;;;;;;;;;;5046666;28;20262;-85
2023/02/17 12:49:55;;;;;;;6.50;5.80;;;;;;;;;;5048137;28;20233;-85
2023/02/17 12:52:26;;;;;;;6.88;5.88;;;;;;;;;;5047927;28;20200;-84
2023/02/17 12:54:56;;;;;;;7.05;6.35;;;;;;;;;;5048396;27;20234;-85
2023/02/17 12:57:25;;;;;;;7.60;6.80;;;;;;;;;;5048152;27;20203;-84
2023/02/17 12:59:53;;;;;;;8.15;7.25;;;;;;;;;;5042635;28;20634;-85
2023/02/17 13:02:25;;;;;;;7.15;6.43;;;;;;;;;;5049198;27;20211;-85
2023/02/17 13:04:53;;;;;;;7.32;6.25;;;;;;;;;;5056523;28;20582;-85
2023/02/17 13:07:34;;;;;;;8.60;6.88;;;;;;;;;;5067305;28;20227;-84
2023/02/17 13:10:02;;;;;;;6.93;6.15;;;;;;;;;;5048138;27;20215;-83
2023/02/17 13:12:33;;;;;;;7.15;6.43;;;;;;;;;;5046294;28;20271;-84
2023/02/17 13:15:01;;;;;;;6.13;5.45;;;;;;;;;;5049000;28;20282;-87
2023/02/17 13:17:29;;;;;;;7.00;6.10;;;;;;;;;;5048748;28;20214;-86
2023/02/17 13:20:06;;;;;;;6.10;5.50;;;;;;;;;;5047661;28;20231;-86
2023/02/17 13:22:35;;;;;;;6.50;5.60;;;;;;;;;;5028819;28;20196;-86
2023/02/17 13:25:04;;;;;;;6.03;5.40;;;;;;;;;;5029052;28;20204;-85
2023/02/17 13:27:33;;;;;;;6.10;5.50;;;;;;;;;;5009284;28;20340;-85
2023/02/17 13:30:00;;;;;;;5.47;4.97;;;;;;;;;;5017042;28;20667;-85
2023/02/17 13:32:29;;;;;;;5.60;5.05;;;;;;;;;;5028973;28;20231;-85
2023/02/17 13:35:00;;;;;;;5.43;4.90;;;;;;;;;;5028213;28;20253;-85
2023/02/17 13:37:39;;;;;;;5.63;5.13;;;;;;;;;;5028017;28;20236;-81
2023/02/17 13:40:21;;;;;;;5.85;5.25;;;;;;;;;;5028369;28;20184;-82
2023/02/17 13:42:50;;;;;;;6.85;5.38;;;;;;;;;;5024328;28;20204;-81
2023/02/17 13:45:20;;;;;;;6.47;5.43;;;;;;;;;;5029957;28;20227;-81
2023/02/17 13:47:49;;;;;;;6.25;5.65;;;;;;;;;;5027030;28;20229;-81
2023/02/17 13:50:31;;;;;;;5.97;5.35;;;;;;;;;;5027480;28;20246;-82
2023/02/17 13:52:59;;;;;;;8.05;5.88;;;;;;;;;;5025932;28;20232;-81
2023/02/17 13:55:26;;;;;;;7.72;5.88;;;;;;;;;;5021949;28;20231;-79
2023/02/17 13:57:55;;;;;;;6.57;5.85;;;;;;;;;;5027036;28;20634;-82
2023/02/17 14:00:24;;;;;;;6.55;5.53;;;;;;;;;;5026843;28;20283;-82
2023/02/17 14:02:52;;;;;;;6.53;5.75;;;;;;;;;;5027085;28;20238;-81
2023/02/17 14:05:20;;;;;;;6.15;5.55;;;;;;;;;;5026466;28;20243;-82
2023/02/17 14:07:47;;;;;;;6.20;5.45;;;;;;;;;;5026881;28;20311;-82
2023/02/17 14:10:22;;;;;;;6.20;5.57;;;;;;;;;;5027967;28;20212;-80
2023/02/17 14:12:50;;;;;;;7.20;6.05;;;;;;;;;;5027516;28;20204;-81
2023/02/17 14:15:20;;;;;;;7.07;6.18;;;;;;;;;;5027855;28;20199;-81
2023/02/17 14:17:48;;;;;;;8.60;6.57;;;;;;;;;;5027467;28;20224;-82
2023/02/17 14:20:32;;;;;;;6.43;5.72;;;;;;;;;;5020863;28;20279;-82
2023/02/17 14:23:00;;;;;;;7.18;6.03;;;;;;;;;;5024309;28;20640;-82
2023/02/17 14:25:29;;;;;;;6.50;5.70;;;;;;;;;;5029594;28;20269;-82
2023/02/17 14:27:56;;;;;;;6.05;5.40;;;;;;;;;;5028342;28;20228;-82
2023/02/17 14:30:32;;;;;;;7.63;6.45;;;;;;;;;;5029294;28;20189;-82
2023/02/17 14:33:06;;;;;;;7.65;6.45;;;;;;;;;;5028271;28;20196;-82
2023/02/17 14:35:34;;;;;;;6.57;5.97;;;;;;;;;;5026737;28;20659;-82
2023/02/17 14:38:08;;;;;;;6.50;5.90;;;;;;;;;;5024927;28;20241;-82
2023/02/17 14:40:36;;;;;;;7.30;6.60;;;;;;;;;;5037205;28;20947;-83
2023/02/17 14:43:06;;;;;;;8.50;6.60;;;;;;;;;;5031782;28;20196;-82
2023/02/17 14:45:34;;;;;;;7.75;6.95;;;;;;;;;;5025742;28;20224;-82